createdAt,value
2018-07-11T00:00:45.971Z,"    0"
2018-07-11T00:05:41.582Z,"    0"
2018-07-11T00:10:38.503Z,"    0"
2018-07-11T00:15:35.109Z,"    0"
2018-07-11T00:20:31.645Z,"    0"
2018-07-11T00:25:27.420Z,"    0"
2018-07-11T00:30:23.251Z,"    0"
2018-07-11T00:35:19.015Z,"    0"
2018-07-11T00:40:15.909Z,"    0"
2018-07-11T00:45:11.197Z,"    0"
2018-07-11T00:50:07.310Z,"    0"
2018-07-11T00:55:03.527Z,"    0"
2018-07-11T01:00:00.402Z,"    0"
2018-07-11T01:04:55.851Z,"    0"
2018-07-11T01:09:52.903Z,"    0"
2018-07-11T01:14:48.495Z,"    0"
2018-07-11T01:19:44.671Z,"    0"
2018-07-11T01:24:40.498Z,"    0"
2018-07-11T01:29:37.784Z,"    0"
2018-07-11T01:34:33.132Z,"    0"
2018-07-11T01:39:28.736Z,"    0"
2018-07-11T01:44:24.502Z,"    0"
2018-07-11T01:49:21.553Z,"    0"
2018-07-11T01:54:18.028Z,"    0"
2018-07-11T01:59:14.388Z,"    0"
2018-07-11T02:04:10.738Z,"    0"
2018-07-11T02:09:06.202Z,"    0"
2018-07-11T02:14:02.900Z,"    0"
2018-07-11T02:18:58.705Z,"    0"
2018-07-11T02:23:55.636Z,"    0"
2018-07-11T02:28:51.035Z,"    0"
2018-07-11T02:33:46.710Z,"    0"
2018-07-11T02:38:42.923Z,"    0"
2018-07-11T02:43:38.667Z,"    0"
2018-07-11T02:48:34.464Z,"    0"
2018-07-11T02:53:30.495Z,"    0"
2018-07-11T02:58:26.715Z,"    0"
2018-07-11T03:03:23.675Z,"    0"
2018-07-11T03:08:19.195Z,"    0"
2018-07-11T03:13:14.858Z,"    0"
2018-07-11T03:18:10.915Z,"    0"
2018-07-11T03:23:07.729Z,"    5"
2018-07-11T03:28:03.826Z,"    5"
2018-07-11T03:32:59.667Z,"    5"
2018-07-11T03:37:56.162Z,"   10"
2018-07-11T03:42:51.920Z,"   15"
2018-07-11T03:47:47.538Z,"   15"
2018-07-11T03:52:43.261Z,"   20"
2018-07-11T03:57:38.922Z,"   20"
2018-07-11T04:02:34.841Z,"   20"
2018-07-11T04:07:31.160Z,"   25"
2018-07-11T04:12:27.546Z,"   30"
2018-07-11T04:17:25.547Z,"   35"
2018-07-11T04:22:21.698Z,"   40"
2018-07-11T04:27:18.110Z,"   40"
2018-07-11T04:32:13.840Z,"   40"
2018-07-11T04:37:10.601Z,"   45"
2018-07-11T04:42:08.477Z,"   45"
2018-07-11T04:47:05.029Z,"   50"
2018-07-11T04:52:00.548Z,"   50"
2018-07-11T04:56:59.243Z,"   50"
2018-07-11T05:01:54.550Z,"   55"
2018-07-11T05:06:51.370Z,"   70"
2018-07-11T05:11:47.110Z,"  130"
2018-07-11T05:16:47.087Z,"  255"
2018-07-11T05:21:44.749Z,"  355"
2018-07-11T05:26:42.962Z,"  400"
2018-07-11T05:31:40.484Z,"  285"
2018-07-11T05:36:36.639Z,"  195"
2018-07-11T05:41:36.807Z,"  380"
2018-07-11T05:46:33.349Z,"  475"
2018-07-11T05:51:30.173Z,"  200"
2018-07-11T05:56:25.289Z,"  135"
2018-07-11T06:01:20.355Z,"  110"
2018-07-11T06:06:15.480Z,"  115"
2018-07-11T06:11:11.074Z,"  145"
2018-07-11T06:16:07.246Z,"  190"
2018-07-11T06:21:03.723Z,"  165"
2018-07-11T06:26:00.071Z,"  135"
2018-07-11T06:30:56.427Z,"  155"
2018-07-11T06:35:54.955Z,"  215"
2018-07-11T06:40:50.734Z,"  255"
2018-07-11T06:45:47.347Z,"  275"
2018-07-11T06:50:43.552Z,"  325"
2018-07-11T06:55:40.325Z,"  310"
2018-07-11T07:00:36.467Z,"  310"
2018-07-11T07:05:33.591Z,"  285"
2018-07-11T07:15:35.440Z,"  350"
2018-07-11T07:20:33.793Z,"  395"
2018-07-11T07:25:29.857Z,"  285"
2018-07-11T07:35:28.682Z,"  215"
2018-07-11T07:40:23.775Z,"  170"
2018-07-11T07:45:19.217Z,"  165"
2018-07-11T07:50:15.815Z,"  195"
2018-07-11T07:55:12.363Z,"  250"
2018-07-11T08:05:09.242Z,"  245"
2018-07-11T08:15:05.307Z,"  230"
2018-07-11T08:20:02.202Z,"  235"
2018-07-11T08:24:58.179Z,"  315"
2018-07-11T08:29:54.280Z,"  275"
2018-07-11T08:39:50.466Z,"  200"
2018-07-11T08:44:46.002Z,"  140"
2018-07-11T08:49:41.590Z,"  125"
2018-07-11T08:54:37.462Z,"  160"
2018-07-11T08:59:34.351Z,"  130"
2018-07-11T09:04:31.353Z,"   70"
2018-07-11T09:09:28.118Z,"   90"
2018-07-11T09:14:23.724Z,"   55"
2018-07-11T09:19:19.147Z,"   45"
2018-07-11T09:24:15.798Z,"   95"
2018-07-11T09:44:21.612Z,"  290"
2018-07-11T09:54:18.180Z,"  240"
2018-07-11T09:59:16.730Z,"  225"
2018-07-11T10:04:11.914Z,"  195"
2018-07-11T10:09:08.752Z,"  135"
2018-07-11T10:14:04.009Z,"  110"
2018-07-11T10:18:59.569Z,"  100"
2018-07-11T10:23:55.423Z,"  125"
2018-07-11T10:28:51.306Z,"  180"
2018-07-11T10:33:48.161Z,"  155"
2018-07-11T10:38:43.881Z,"  135"
2018-07-11T10:43:39.600Z,"  150"
2018-07-11T10:48:35.928Z,"  210"
2018-07-11T10:53:32.012Z,"  255"
2018-07-11T10:58:28.111Z,"  170"
2018-07-11T11:03:24.875Z,"  145"
2018-07-11T11:08:20.272Z,"   85"
2018-07-11T11:13:16.316Z,"   65"
2018-07-11T11:18:11.659Z,"   85"
2018-07-11T11:23:07.412Z,"  125"
2018-07-11T11:28:03.817Z,"   55"
2018-07-11T11:32:58.948Z,"  105"
2018-07-11T11:37:54.891Z,"  110"
2018-07-11T11:42:51.724Z,"   85"
2018-07-11T11:47:47.608Z,"   95"
2018-07-11T11:52:43.679Z,"   95"
2018-07-11T11:57:40.714Z,"  135"
2018-07-11T12:02:37.302Z,"  130"
2018-07-11T12:07:33.392Z,"  110"
2018-07-11T12:12:30.702Z,"  110"
2018-07-11T12:17:26.149Z,"  110"
2018-07-11T12:22:21.999Z,"  105"
2018-07-11T12:27:17.964Z,"  105"
2018-07-11T12:32:13.805Z,"  125"
2018-07-11T12:37:10.358Z,"  170"
2018-07-11T12:42:07.393Z,"  165"
2018-07-11T12:47:03.557Z,"  125"
2018-07-11T12:52:00.769Z,"   95"
2018-07-11T12:56:56.116Z,"   70"
2018-07-11T13:01:52.614Z,"   35"
2018-07-11T13:06:47.861Z,"   85"
2018-07-11T13:11:43.308Z,"   40"
2018-07-11T13:16:38.699Z,"   20"
2018-07-11T13:21:34.840Z,"   45"
2018-07-11T13:26:30.768Z,"   55"
2018-07-11T13:31:27.779Z,"   60"
2018-07-11T13:36:23.368Z,"   70"
2018-07-11T13:41:19.260Z,"  165"
2018-07-11T13:46:16.687Z,"  210"
2018-07-11T13:51:13.591Z,"  340"
2018-07-11T13:56:09.827Z,"  305"
2018-07-11T14:01:07.185Z,"  450"
2018-07-11T14:06:03.336Z,"  320"
2018-07-11T14:10:59.455Z,"  255"
2018-07-11T14:15:55.291Z,"  345"
2018-07-11T14:20:52.459Z,"  320"
2018-07-11T14:25:48.152Z,"  405"
2018-07-11T14:30:44.496Z,"  355"
2018-07-11T14:35:40.454Z,"  285"
2018-07-11T14:40:36.231Z,"  250"
2018-07-11T14:45:32.148Z,"  225"
2018-07-11T14:50:28.796Z,"  170"
2018-07-11T14:55:24.218Z,"  140"
2018-07-11T15:00:20.047Z,"  195"
2018-07-11T15:05:16.067Z,"  250"
2018-07-11T15:10:12.347Z,"  270"
2018-07-11T15:15:08.788Z,"  240"
2018-07-11T15:20:05.771Z,"  115"
2018-07-11T15:25:00.881Z,"  110"
2018-07-11T15:29:56.341Z,"  110"
2018-07-11T15:34:52.973Z,"  115"
2018-07-11T15:39:48.643Z,"  140"
2018-07-11T15:44:45.179Z,"   75"
2018-07-11T15:49:40.806Z,"   80"
2018-07-11T15:54:36.581Z,"  100"
2018-07-11T15:59:32.396Z,"   90"
2018-07-11T16:04:29.288Z,"   80"
2018-07-11T16:09:24.764Z,"   70"
2018-07-11T16:14:20.620Z,"   70"
2018-07-11T16:19:17.523Z,"   80"
2018-07-11T16:24:14.166Z,"   65"
2018-07-11T16:29:10.196Z,"   75"
2018-07-11T16:34:06.249Z,"   75"
2018-07-11T16:39:01.920Z,"   25"
2018-07-11T16:43:57.719Z,"   80"
2018-07-11T16:48:53.496Z,"   90"
2018-07-11T16:53:50.249Z,"   80"
2018-07-11T16:58:45.516Z,"   80"
2018-07-11T17:03:41.326Z,"   50"
2018-07-11T17:08:37.816Z,"   20"
2018-07-11T17:13:33.248Z,"   25"
2018-07-11T17:18:29.102Z,"   35"
2018-07-11T17:23:24.839Z,"   10"
2018-07-11T17:28:20.496Z,"   30"
2018-07-11T17:33:16.921Z,"   60"
2018-07-11T17:38:12.685Z,"   60"
2018-07-11T17:43:08.641Z,"   60"
2018-07-11T17:48:04.366Z,"   65"
2018-07-11T17:53:00.397Z,"   80"
2018-07-11T17:57:56.210Z,"   85"
2018-07-11T18:02:51.958Z,"   70"
2018-07-11T18:07:48.943Z,"   60"
2018-07-11T18:12:45.328Z,"   60"
2018-07-11T18:17:41.618Z,"   60"
2018-07-11T18:22:37.287Z,"   55"
2018-07-11T18:27:33.818Z,"   55"
2018-07-11T18:32:29.578Z,"   50"
2018-07-11T18:37:26.425Z,"   50"
2018-07-11T18:42:22.086Z,"   45"
2018-07-11T18:47:17.831Z,"   40"
2018-07-11T18:52:13.651Z,"   35"
2018-07-11T18:57:09.295Z,"   30"
2018-07-11T19:02:05.248Z,"   25"
2018-07-11T19:07:01.828Z,"   20"
2018-07-11T19:11:57.408Z,"   20"
2018-07-11T19:16:53.095Z,"   15"
2018-07-11T19:21:48.565Z,"   10"
2018-07-11T19:26:44.571Z,"    5"
2018-07-11T19:31:40.638Z,"    5"
2018-07-11T19:36:36.306Z,"    0"
2018-07-11T19:41:32.498Z,"    0"
2018-07-11T19:46:28.144Z,"    0"
2018-07-11T19:51:25.174Z,"    0"
2018-07-11T19:56:20.673Z,"    0"
2018-07-11T20:01:17.320Z,"    0"
2018-07-11T20:06:12.759Z,"    0"
2018-07-11T20:11:08.846Z,"    0"
2018-07-11T20:16:05.578Z,"    0"
2018-07-11T20:21:00.998Z,"    0"
2018-07-11T20:25:57.788Z,"    0"
2018-07-11T20:30:53.332Z,"    0"
2018-07-11T20:35:50.195Z,"    0"
2018-07-11T20:40:46.113Z,"    0"
2018-07-11T20:45:41.990Z,"    0"
2018-07-11T20:50:37.951Z,"    0"
2018-07-11T20:55:33.808Z,"    0"
2018-07-11T21:00:30.099Z,"    0"
2018-07-11T21:05:26.884Z,"    0"
2018-07-11T21:10:23.346Z,"    0"
2018-07-11T21:15:20.565Z,"    0"
2018-07-11T21:20:16.079Z,"    0"
2018-07-11T21:25:11.968Z,"    0"
2018-07-11T21:30:07.784Z,"    0"
2018-07-11T21:35:04.115Z,"    0"
2018-07-11T21:40:00.570Z,"    0"
2018-07-11T21:44:56.633Z,"    0"
2018-07-11T21:49:52.472Z,"    0"
2018-07-11T21:54:48.121Z,"    0"
2018-07-11T21:59:44.414Z,"    0"
2018-07-11T22:04:40.120Z,"    0"
2018-07-11T22:09:36.087Z,"    0"
2018-07-11T22:14:32.366Z,"    0"
2018-07-11T22:19:29.414Z,"    0"
2018-07-11T22:24:25.590Z,"    0"
2018-07-11T22:29:21.335Z,"    0"
2018-07-11T22:34:17.691Z,"    0"
2018-07-11T22:39:13.718Z,"    0"
2018-07-11T22:44:10.644Z,"    0"
2018-07-11T22:49:06.280Z,"    0"
2018-07-11T22:54:02.445Z,"    0"
2018-07-11T22:58:58.353Z,"    0"
2018-07-11T23:03:55.247Z,"    0"
2018-07-11T23:08:50.839Z,"    0"
2018-07-11T23:13:47.636Z,"    0"
2018-07-11T23:18:43.302Z,"    0"
2018-07-11T23:23:40.302Z,"    0"
2018-07-11T23:28:35.775Z,"    0"
2018-07-11T23:33:31.614Z,"    0"
2018-07-11T23:38:27.012Z,"    0"
2018-07-11T23:43:23.124Z,"    0"
2018-07-11T23:48:18.912Z,"    0"
2018-07-11T23:53:14.704Z,"    0"
2018-07-11T23:58:10.419Z,"    0"
